Impacts TAF Board INFO
FOR SITUATIONAL AWARENESS. NOT TO BE USED FOR FLIGHT PLANNING PURPOSES.
IDs:

KPHL - Philadelphia Intl, PA, US

Issued at 1740 UTC 16 Dec 2017
Updated at 1838 UTC 16 Dec 2017
Potential Impact None Slight Moderate High
Time1754Z 16/19Z 16/20Z 16/21Z 16/22Z 16/23Z 17/00Z 17/01Z 17/02Z 17/03Z 17/04Z 17/05Z 17/06Z 17/07Z>>
Type OBS PRVL PRVL PRVL PRVL PRVL PRVL PRVL PRVL PRVL PRVL PRVL PRVL PRVL
VIS 10 >6 >6 >6 >6 >6 >6 >6 >6 >6 >6 >6 >6 >6
CIG 140 60 60 60 60 150 150 150 150 150 150 150 150 150
Cover BKN BKN BKN BKN BKN BKN BKN BKN BKN BKN BKN BKN BKN BKN
FltCat VFR VFR VFR VFR VFR VFR VFR VFR VFR VFR VFR VFR VFR VFR
WX -- -- -- -- -- -- -- -- -- -- -- -- -- --
WDir 230 230 230 230 230 250 250 250 250 250 250 250 250 250
WSpd 14 10 10 10 10 6 6 6 6 6 6 6 6 6
WGst -- 18 18 18 18 -- -- -- -- -- -- -- -- --

Raw TAF
KPHL 161740Z 1618/1724 23010G18KT P6SM BKN060
  FM162300 25006KT P6SM BKN150
  FM170800 02004KT P6SM BKN050


Raw METAR
KPHL 161754Z 23014KT 10SM FEW075 BKN140 BKN260 04/M04 A3006 RMK AO2 SLP177 T00391039 10039 21039 58023 $
KPHL 161654Z 22016KT 10SM SCT075 SCT120 SCT260 03/M04 A3009 RMK AO2 SLP187 T00331039 $
KPHL 161554Z 25014KT 10SM SCT055 SCT120 01/M04 A3012 RMK AO2 SLP197 T00111039 $

METAR Board
Radar Display
Forecast Discussion

FOR SITUATIONAL AWARENESS. NOT TO BE USED FOR FLIGHT PLANNING PURPOSES.